Crandall, Indiana
Current Conditions -  °F | °C
As of 3:56 AM on Saturday 20 Dec 2014 (Local Time) from KSDF Reporting Station
Overcast Overcast  
Wind Chill: 25°   Ceiling: 10000
Heat Index: 30°   Visibility: 8mi
Dew Point: 23°   Wind: 5mph
Humidity: 75%   Direction: 30°NNE
Pressure: 30.27"   Gusts: NA
Location:  38.29°N, 86.07°W
Report Text: KSDF 200856Z 03004KT 8SM FEW055 OVC100 M01/M05 A3027 RMK AO2 SLP253 T10111050 56004
Loading
Personal Weather Stations






























Interactive Weather Map New forecast layout! Learn more

10-Day Weather Forecast

Advertisements
Track Severe Weather on mobile